createdAt,value
2017-07-03T00:00:52.875Z,95.61
2017-07-03T00:01:52.858Z,95.65
2017-07-03T00:02:52.531Z,94.98
2017-07-03T00:03:52.833Z,94.84
2017-07-03T00:04:52.820Z,94.89
2017-07-03T00:05:52.814Z,94.31
2017-07-03T00:06:52.797Z,94.31
2017-07-03T00:07:52.786Z,93.84
2017-07-03T00:08:52.767Z,94.6
2017-07-03T00:09:52.757Z,94.41
2017-07-03T00:10:52.478Z,94.41
2017-07-03T00:11:52.723Z,94.98
2017-07-03T00:12:52.714Z,94.51
2017-07-03T00:13:52.699Z,95.08
2017-07-03T00:14:52.692Z,94.79
2017-07-03T00:15:52.358Z,95.08
2017-07-03T00:16:52.346Z,94.7
2017-07-03T00:17:52.335Z,94.31
2017-07-03T00:18:52.328Z,94.6
2017-07-03T00:19:52.309Z,94.22
2017-07-03T00:20:52.322Z,94.51
2017-07-03T00:21:52.286Z,93.84
2017-07-03T00:22:52.581Z,93.46
2017-07-03T00:23:52.565Z,91.83
2017-07-03T00:24:52.556Z,91.55
2017-07-03T00:25:52.538Z,92.6
2017-07-03T00:26:52.524Z,89.4
2017-07-03T00:27:52.511Z,90.11
2017-07-03T00:28:52.186Z,90.59
2017-07-03T00:29:52.482Z,90.21
2017-07-03T00:30:52.470Z,90.88
2017-07-03T00:31:52.453Z,89.97
2017-07-03T00:32:52.443Z,90.73
2017-07-03T00:33:52.426Z,90.45
2017-07-03T00:34:52.415Z,90.5
2017-07-03T00:35:52.406Z,90.45
2017-07-03T00:36:52.384Z,90.83
2017-07-03T00:37:52.373Z,91.78
2017-07-03T00:38:52.361Z,90.64
2017-07-03T00:39:52.034Z,90.55
2017-07-03T00:40:52.333Z,90.55
2017-07-03T00:41:52.317Z,90.64
2017-07-03T00:42:52.307Z,90.64
2017-07-03T00:43:52.316Z,90.45
2017-07-03T00:44:51.965Z,90.55
2017-07-03T00:45:52.262Z,90.45
2017-07-03T00:46:51.937Z,90.73
2017-07-03T00:47:52.234Z,90.73
2017-07-03T00:48:51.906Z,90.55
2017-07-03T00:49:52.209Z,90.55
2017-07-03T00:50:52.206Z,90.26
2017-07-03T00:51:52.182Z,90.55
2017-07-03T00:52:52.171Z,90.07
2017-07-03T00:53:51.842Z,89.21
2017-07-03T00:54:52.147Z,89.59
2017-07-03T00:55:52.125Z,89.02
2017-07-03T00:56:52.113Z,88.83
2017-07-03T00:57:52.129Z,89.02
2017-07-03T00:58:51.772Z,88.54
2017-07-03T00:59:52.075Z,87.97
2017-07-03T01:00:52.054Z,87.97
2017-07-03T01:01:52.040Z,88.12
2017-07-03T01:02:51.719Z,88.07
2017-07-03T01:03:52.015Z,87.59
2017-07-03T01:04:51.999Z,87.68
2017-07-03T01:05:51.671Z,87.16
2017-07-03T01:06:51.978Z,87.45
2017-07-03T01:07:51.644Z,87.35
2017-07-03T01:08:51.946Z,87.35
2017-07-03T01:09:51.928Z,86.88
2017-07-03T01:10:51.914Z,86.88
2017-07-03T01:11:51.900Z,86.49
2017-07-03T01:12:51.576Z,86.69
2017-07-03T01:13:51.559Z,86.21
2017-07-03T01:14:51.546Z,86.4
2017-07-03T01:15:51.531Z,86.11
2017-07-03T01:16:51.833Z,86.02
2017-07-03T01:17:51.814Z,85.83
2017-07-03T01:18:51.801Z,86.21
2017-07-03T01:19:51.475Z,86.21
2017-07-03T01:20:51.460Z,85.64
2017-07-03T01:21:51.758Z,85.73
2017-07-03T01:22:51.430Z,85.64
2017-07-03T01:23:51.734Z,85.16
2017-07-03T01:24:51.715Z,84.69
2017-07-03T01:25:51.391Z,83.92
2017-07-03T01:26:51.686Z,84.11
2017-07-03T01:27:51.676Z,83.83
2017-07-03T01:28:51.346Z,83.44
2017-07-03T01:29:51.645Z,83.35
2017-07-03T01:30:51.631Z,83.35
2017-07-03T01:31:51.620Z,83.54
2017-07-03T01:32:51.287Z,83.25
2017-07-03T01:33:51.587Z,84.01
2017-07-03T01:34:51.572Z,83.64
2017-07-03T01:35:51.247Z,83.06
2017-07-03T01:36:51.230Z,83.25
2017-07-03T01:37:51.531Z,82.87
2017-07-03T01:38:51.207Z,82.45
2017-07-03T01:39:51.501Z,82.3
2017-07-03T01:40:51.497Z,82.73
2017-07-03T01:41:51.470Z,82.64
2017-07-03T01:42:51.457Z,82.07
2017-07-03T01:43:51.441Z,81.4
2017-07-03T01:44:51.115Z,81.3
2017-07-03T01:45:51.414Z,81.02
2017-07-03T01:46:51.399Z,81.3
2017-07-03T01:47:51.390Z,81.12
2017-07-03T01:48:51.061Z,81.06
2017-07-03T01:49:51.043Z,80.73
2017-07-03T01:50:51.230Z,81.02
2017-07-03T01:51:51.017Z,80.92
2017-07-03T01:52:51.318Z,80.64
2017-07-03T01:53:50.990Z,80.92
2017-07-03T01:54:50.969Z,80.73
2017-07-03T01:55:50.963Z,81.02
2017-07-03T01:56:51.257Z,80.35
2017-07-03T01:57:51.238Z,80.26
2017-07-03T01:58:50.912Z,80.07
2017-07-03T01:59:51.213Z,79.97
2017-07-03T02:00:51.197Z,79.21
2017-07-03T02:01:50.871Z,78.83
2017-07-03T02:02:51.169Z,79.02
2017-07-03T02:03:50.841Z,79.02
2017-07-03T02:04:50.829Z,79.59
2017-07-03T02:05:51.127Z,79.02
2017-07-03T02:06:51.109Z,78.73
2017-07-03T02:07:51.096Z,78.25
2017-07-03T02:08:50.768Z,78.35
2017-07-03T02:09:51.073Z,78.35
2017-07-03T02:10:50.741Z,77.87
2017-07-03T02:11:50.728Z,77.97
2017-07-03T02:12:50.712Z,77.97
2017-07-03T02:13:51.008Z,77.69
2017-07-03T02:14:50.999Z,78.16
2017-07-03T02:15:50.981Z,78.64
2017-07-03T02:16:50.701Z,78.92
2017-07-03T02:17:50.951Z,78.73
2017-07-03T02:18:50.937Z,77.59
2017-07-03T02:19:50.608Z,77.49
2017-07-03T02:20:50.907Z,78.06
2017-07-03T02:21:50.577Z,77.87
2017-07-03T02:22:50.880Z,77.87
2017-07-03T02:23:50.886Z,77.59
2017-07-03T02:24:50.849Z,77.11
2017-07-03T02:25:50.519Z,76.69
2017-07-03T02:26:50.818Z,76.73
2017-07-03T02:27:50.488Z,76.16
2017-07-03T02:28:50.473Z,75.87
2017-07-03T02:29:50.461Z,75.4
2017-07-03T02:30:50.759Z,74.73
2017-07-03T02:31:50.744Z,74.54
2017-07-03T02:32:50.728Z,74.44
2017-07-03T02:33:50.714Z,74.73
2017-07-03T02:34:50.382Z,74.73
2017-07-03T02:35:50.681Z,74.06
2017-07-03T02:36:50.670Z,74.82
2017-07-03T02:37:50.654Z,75.2
2017-07-03T02:38:50.325Z,74.92
2017-07-03T02:39:50.311Z,74.92
2017-07-03T02:40:50.606Z,75.07
2017-07-03T02:41:50.594Z,75.11
2017-07-03T02:42:50.266Z,75.16
2017-07-03T02:43:50.254Z,75.07
2017-07-03T02:44:50.242Z,74.98
2017-07-03T02:45:50.533Z,74.69
2017-07-03T02:46:50.521Z,74.79
2017-07-03T02:47:50.507Z,74.5
2017-07-03T02:48:50.490Z,74.5
2017-07-03T02:49:50.163Z,74.5
2017-07-03T02:50:50.458Z,74.21
2017-07-03T02:51:50.132Z,74.12
2017-07-03T02:52:50.478Z,74.21
2017-07-03T02:53:50.101Z,73.65
2017-07-03T02:54:50.399Z,73.45
2017-07-03T02:55:50.381Z,73.93
2017-07-03T02:56:50.372Z,74.5
2017-07-03T02:57:50.357Z,73.45
2017-07-03T02:58:50.345Z,73.65
2017-07-03T02:59:50.324Z,73.74
2017-07-03T03:00:50.309Z,74.02
2017-07-03T03:01:50.298Z,73.65
2017-07-03T03:02:49.965Z,73.65
2017-07-03T03:03:50.264Z,73.74
2017-07-03T03:04:49.934Z,73.36
2017-07-03T03:05:49.920Z,73.17
2017-07-03T03:06:50.218Z,73.17
2017-07-03T03:07:50.202Z,73.36
2017-07-03T03:08:50.193Z,73.55
2017-07-03T03:09:50.172Z,73.36
2017-07-03T03:10:49.848Z,73.55
2017-07-03T03:11:50.145Z,73.36
2017-07-03T03:12:49.814Z,73.17
2017-07-03T03:13:50.117Z,73.45
2017-07-03T03:14:49.784Z,73.26
2017-07-03T03:15:49.769Z,73.45
2017-07-03T03:16:50.067Z,73.26
2017-07-03T03:17:50.055Z,73.55
2017-07-03T03:18:49.722Z,73.26
2017-07-03T03:19:49.708Z,73.17
2017-07-03T03:20:50.007Z,73.26
2017-07-03T03:21:49.990Z,72.97
2017-07-03T03:22:49.668Z,72.88
2017-07-03T03:23:49.652Z,73.07
2017-07-03T03:24:49.944Z,73.36
2017-07-03T03:25:49.933Z,72.97
2017-07-03T03:26:49.916Z,72.88
2017-07-03T03:27:49.591Z,73.26
2017-07-03T03:28:49.890Z,72.69
2017-07-03T03:29:49.561Z,73.17
2017-07-03T03:30:49.854Z,72.78
2017-07-03T03:31:49.533Z,72.69
2017-07-03T03:32:49.823Z,72.5
2017-07-03T03:33:49.497Z,72.31
2017-07-03T03:34:49.793Z,72.69
2017-07-03T03:35:49.779Z,72.12
2017-07-03T03:36:49.451Z,71.83
2017-07-03T03:37:49.749Z,71.93
2017-07-03T03:38:49.734Z,71.36
2017-07-03T03:39:49.720Z,71.73
2017-07-03T03:40:49.704Z,71.73
2017-07-03T03:41:49.688Z,71.64
2017-07-03T03:42:49.360Z,71.55
2017-07-03T03:43:49.346Z,71.36
2017-07-03T03:44:49.663Z,70.88
2017-07-03T03:45:49.627Z,70.59
2017-07-03T03:46:49.612Z,70.4
2017-07-03T03:47:49.334Z,70.4
2017-07-03T03:48:49.268Z,69.93
2017-07-03T03:49:49.252Z,69.83
2017-07-03T03:50:49.757Z,69.74
2017-07-03T03:51:49.231Z,69.83
2017-07-03T03:52:49.521Z,70.02
2017-07-03T03:53:49.508Z,69.45
2017-07-03T03:54:49.491Z,69.35
2017-07-03T03:55:49.476Z,69.64
2017-07-03T03:56:49.197Z,69.93
2017-07-03T03:57:49.134Z,69.35
2017-07-03T03:58:49.115Z,68.98
2017-07-03T03:59:49.420Z,69.45
2017-07-03T04:00:49.402Z,69.17
2017-07-03T04:01:49.073Z,69.45
2017-07-03T04:02:49.375Z,68.59
2017-07-03T04:03:49.043Z,67.83
2017-07-03T04:04:49.343Z,66.97
2017-07-03T04:05:49.327Z,67.07
2017-07-03T04:06:49.308Z,66.88
2017-07-03T04:07:49.299Z,64.69
2017-07-03T04:08:49.283Z,64.24
2017-07-03T04:09:49.265Z,64.53
2017-07-03T04:10:49.262Z,64.24
2017-07-03T04:11:49.235Z,63.96
2017-07-03T04:12:49.219Z,62.72
2017-07-03T04:13:48.897Z,63.2
2017-07-03T04:14:48.875Z,63.2
2017-07-03T04:15:48.862Z,62.52
2017-07-03T04:16:49.168Z,62.52
2017-07-03T04:17:48.829Z,63.29
2017-07-03T04:18:49.131Z,62.62
2017-07-03T04:19:48.806Z,62.91
2017-07-03T04:20:49.102Z,63.48
2017-07-03T04:21:48.773Z,63.29
2017-07-03T04:22:49.070Z,63.76
2017-07-03T04:23:49.056Z,63.57
2017-07-03T04:24:48.728Z,63.67
2017-07-03T04:25:48.711Z,61.67
2017-07-03T04:26:49.011Z,61.19
2017-07-03T04:27:48.992Z,61.38
2017-07-03T04:28:48.669Z,61.48
2017-07-03T04:29:48.649Z,61.57
2017-07-03T04:30:48.956Z,61.57
2017-07-03T04:31:48.624Z,61.32
2017-07-03T04:32:48.946Z,61.67
2017-07-03T04:33:48.907Z,61.29
2017-07-03T04:34:48.891Z,61.29
2017-07-03T04:35:48.877Z,61.38
2017-07-03T04:36:48.864Z,61
2017-07-03T04:37:48.853Z,61.6
2017-07-03T04:38:48.836Z,61.67
2017-07-03T04:39:48.508Z,61.6
2017-07-03T04:40:48.492Z,61.89
2017-07-03T04:41:48.793Z,61.51
2017-07-03T04:42:48.773Z,61.7
2017-07-03T04:43:48.448Z,61.51
2017-07-03T04:44:48.746Z,61.22
2017-07-03T04:45:48.732Z,61.22
2017-07-03T04:46:48.721Z,61.22
2017-07-03T04:47:48.708Z,61.22
2017-07-03T04:48:48.380Z,61.51
2017-07-03T04:49:48.674Z,61.51
2017-07-03T04:50:48.664Z,61.32
2017-07-03T04:51:48.646Z,62.18
2017-07-03T04:52:48.318Z,61.99
2017-07-03T04:53:48.675Z,62.18
2017-07-03T04:54:48.296Z,61.51
2017-07-03T04:55:48.275Z,61.8
2017-07-03T04:56:48.573Z,61.99
2017-07-03T04:57:48.563Z,61.89
2017-07-03T04:58:48.547Z,62.08
2017-07-03T04:59:48.533Z,61.51
2017-07-03T05:00:48.214Z,61.8
2017-07-03T05:01:48.501Z,61.41
2017-07-03T05:02:48.180Z,61.63
2017-07-03T05:03:48.477Z,61.73
2017-07-03T05:04:48.147Z,61.83
2017-07-03T05:05:48.451Z,61.83
2017-07-03T05:06:48.121Z,60.97
2017-07-03T05:07:48.113Z,60.68
2017-07-03T05:08:48.092Z,60.78
2017-07-03T05:09:48.078Z,60.68
2017-07-03T05:10:48.376Z,60.97
2017-07-03T05:11:48.048Z,61.16
2017-07-03T05:12:48.349Z,61.83
2017-07-03T05:13:48.333Z,61.73
2017-07-03T05:14:48.318Z,61.16
2017-07-03T05:15:48.301Z,61.86
2017-07-03T05:16:48.291Z,61.86
2017-07-03T05:17:48.278Z,61.1
2017-07-03T05:18:48.264Z,61.38
2017-07-03T05:19:48.253Z,61.66
2017-07-03T05:20:48.277Z,62.05
2017-07-03T05:21:48.222Z,62.05
2017-07-03T05:22:48.206Z,62.24
2017-07-03T05:23:47.914Z,63.1
2017-07-03T05:24:48.180Z,63.57
2017-07-03T05:25:47.853Z,64.53
2017-07-03T05:26:48.152Z,64.85
2017-07-03T05:27:48.141Z,64.75
2017-07-03T05:28:48.130Z,65.33
2017-07-03T05:29:48.119Z,66.28
2017-07-03T05:30:48.099Z,67.14
2017-07-03T05:31:47.770Z,68.29
2017-07-03T05:32:48.072Z,68.67
2017-07-03T05:33:48.064Z,69.72
2017-07-03T05:34:47.729Z,70.87
2017-07-03T05:35:48.031Z,70.48
2017-07-03T05:36:47.706Z,71.34
2017-07-03T05:37:48.004Z,71.72
2017-07-03T05:38:48.034Z,72.91
2017-07-03T05:39:47.660Z,73.1
2017-07-03T05:40:47.960Z,73.39
2017-07-03T05:41:47.945Z,74.63
2017-07-03T05:42:47.935Z,76.54
2017-07-03T05:43:47.922Z,77.01
2017-07-03T05:44:47.901Z,76.64
2017-07-03T05:45:47.892Z,77.3
2017-07-03T05:46:47.881Z,78.16
2017-07-03T05:47:47.866Z,78.55
2017-07-03T05:48:47.857Z,78.64
2017-07-03T05:49:47.836Z,78.55
2017-07-03T05:50:48.032Z,78.83
2017-07-03T05:51:47.499Z,78.74
2017-07-03T05:52:47.487Z,80.65
2017-07-03T05:53:47.790Z,81.07
2017-07-03T05:54:47.772Z,80.79
2017-07-03T05:55:47.762Z,81.16
2017-07-03T05:56:47.747Z,81.07
2017-07-03T05:57:47.420Z,82.51
2017-07-03T05:58:47.719Z,83.37
2017-07-03T05:59:47.711Z,83.94
2017-07-03T06:00:47.382Z,84.03
2017-07-03T06:01:47.373Z,86.23
2017-07-03T06:02:47.664Z,85.38
2017-07-03T06:03:47.654Z,85.57
2017-07-03T06:04:47.327Z,86.33
2017-07-03T06:05:47.629Z,86.14
2017-07-03T06:06:47.303Z,85.66
2017-07-03T06:07:47.291Z,87
2017-07-03T06:08:47.327Z,87.95
2017-07-03T06:09:47.259Z,88.05
2017-07-03T06:10:47.262Z,87.9
2017-07-03T06:11:47.235Z,88.76
2017-07-03T06:12:47.222Z,89.81
2017-07-03T06:13:47.267Z,89.81
2017-07-03T06:14:47.513Z,90.48
2017-07-03T06:15:47.500Z,90.67
2017-07-03T06:16:47.484Z,90.67
2017-07-03T06:17:47.470Z,89.91
2017-07-03T06:18:47.149Z,92.4
2017-07-03T06:19:47.136Z,94.02
2017-07-03T06:20:47.437Z,92.88
2017-07-03T06:21:47.107Z,98.86
2017-07-03T06:22:47.101Z,99.99
2017-07-03T06:23:47.090Z,99.99
2017-07-03T06:24:47.391Z,99.99
2017-07-03T06:25:47.380Z,99.99
2017-07-03T06:26:47.364Z,99.99
2017-07-03T06:27:47.043Z,99.99
2017-07-03T06:28:47.348Z,99.99
2017-07-03T06:29:47.337Z,99.99
2017-07-03T06:30:47.320Z,99.99
2017-07-03T06:31:47.312Z,99.99
2017-07-03T06:32:46.985Z,99.99
2017-07-03T06:33:46.976Z,99.99
2017-07-03T06:34:46.965Z,99.99
2017-07-03T06:35:47.267Z,99.99
2017-07-03T06:36:47.287Z,99.99
2017-07-03T06:37:47.246Z,99.99
2017-07-03T06:38:47.273Z,99.99
2017-07-03T06:39:47.222Z,99.99
2017-07-03T06:40:47.213Z,99.99
2017-07-03T06:41:46.886Z,99.99
2017-07-03T06:42:47.192Z,99.99
2017-07-03T06:43:46.865Z,99.99
2017-07-03T06:44:47.168Z,99.99
2017-07-03T06:45:47.156Z,99.99
2017-07-03T06:46:47.187Z,99.99
2017-07-03T06:47:47.129Z,99.99
2017-07-03T06:48:46.808Z,99.99
2017-07-03T06:49:47.110Z,99.99
2017-07-03T06:50:46.784Z,99.99
2017-07-03T06:51:47.123Z,99.99
2017-07-03T06:52:47.073Z,99.99
2017-07-03T06:53:46.755Z,99.99
2017-07-03T06:54:47.166Z,99.99
2017-07-03T06:55:47.045Z,99.99
2017-07-03T06:56:46.719Z,99.99
2017-07-03T06:57:46.712Z,99.99
2017-07-03T06:58:47.016Z,99.99
2017-07-03T06:59:47.004Z,99.99
2017-07-03T07:00:46.994Z,99.99
2017-07-03T07:01:46.671Z,97.67
2017-07-03T07:02:46.981Z,91.39
2017-07-03T07:03:46.968Z,87.71
2017-07-03T07:04:46.958Z,86.94
2017-07-03T07:05:46.637Z,87.95
2017-07-03T07:06:46.937Z,84.61
2017-07-03T07:07:46.928Z,83.64
2017-07-03T07:08:46.609Z,82.14
2017-07-03T07:09:46.595Z,79.91
2017-07-03T07:10:46.933Z,78.46
2017-07-03T07:11:46.578Z,77.98
2017-07-03T07:12:46.564Z,78.27
2017-07-03T07:13:46.867Z,78.85
2017-07-03T07:14:46.859Z,79.24
2017-07-03T07:15:46.853Z,76.62
2017-07-03T07:16:46.527Z,77.4
2017-07-03T07:17:46.830Z,77.63
2017-07-03T07:18:46.825Z,77.14
2017-07-03T07:19:46.816Z,75.6
2017-07-03T07:20:46.804Z,77.14
2017-07-03T07:21:46.486Z,76.6
2017-07-03T07:22:46.790Z,76.51
2017-07-03T07:23:46.784Z,75.15
2017-07-03T07:24:46.779Z,75.48
2017-07-03T07:25:46.768Z,73.05
2017-07-03T07:26:46.761Z,71.54
2017-07-03T07:27:46.442Z,70.09
2017-07-03T07:28:46.752Z,71.7
2017-07-03T07:29:46.430Z,71.28
2017-07-03T07:30:46.740Z,71.95
2017-07-03T07:31:46.736Z,72.47
2017-07-03T07:32:46.421Z,70.11
2017-07-03T07:33:46.409Z,68.37
2017-07-03T07:34:46.720Z,69.34
2017-07-03T07:35:46.402Z,68.66
2017-07-03T07:36:46.760Z,69.43
2017-07-03T07:37:46.392Z,69.53
2017-07-03T07:38:46.702Z,70.31
2017-07-03T07:39:46.744Z,70.31
2017-07-03T07:40:46.690Z,69.24
2017-07-03T07:41:46.685Z,67.98
2017-07-03T07:42:46.689Z,67.72
2017-07-03T07:43:46.686Z,68.12
2017-07-03T07:44:46.677Z,67.27
2017-07-03T07:45:46.674Z,65.56
2017-07-03T07:46:46.672Z,65.3
2017-07-03T07:47:46.669Z,63.85
2017-07-03T07:48:46.670Z,64.47
2017-07-03T07:49:46.398Z,65.43
2017-07-03T07:50:46.861Z,66.11
2017-07-03T07:51:46.344Z,67.57
2017-07-03T07:52:46.662Z,65.95
2017-07-03T07:53:46.341Z,63.65
2017-07-03T07:54:46.648Z,64.72
2017-07-03T07:55:46.645Z,64.14
2017-07-03T07:56:46.642Z,64.33
2017-07-03T07:57:46.325Z,64.01
2017-07-03T07:58:46.641Z,64.69
2017-07-03T07:59:46.322Z,64.98
2017-07-03T08:00:46.321Z,64.88
2017-07-03T08:01:46.322Z,63.65
2017-07-03T08:02:46.628Z,64.04
2017-07-03T08:03:46.627Z,62.88
2017-07-03T08:04:46.312Z,63.95
2017-07-03T08:05:46.624Z,63.75
2017-07-03T08:06:46.623Z,63.46
2017-07-03T08:07:46.312Z,62.81
2017-07-03T08:08:46.622Z,62.91
2017-07-03T08:09:46.624Z,63.75
2017-07-03T08:10:46.301Z,64.33
2017-07-03T08:11:46.616Z,62.62
2017-07-03T08:12:46.617Z,61.84
2017-07-03T08:13:46.306Z,61.45
2017-07-03T08:14:46.608Z,62.98
2017-07-03T08:15:46.606Z,63.17
2017-07-03T08:16:46.604Z,63.04
2017-07-03T08:17:46.292Z,64.4
2017-07-03T08:18:46.291Z,63.75
2017-07-03T08:19:46.291Z,62.32
2017-07-03T08:20:46.286Z,61.84
2017-07-03T08:21:46.286Z,61.84
2017-07-03T08:22:46.281Z,62.55
2017-07-03T08:23:46.599Z,61.87
2017-07-03T08:24:46.598Z,63.1
2017-07-03T08:25:46.286Z,62.81
2017-07-03T08:26:46.280Z,61
2017-07-03T08:27:46.594Z,62.59
2017-07-03T08:28:46.591Z,61.35
2017-07-03T08:29:46.281Z,60.58
2017-07-03T08:30:46.594Z,61.25
2017-07-03T08:31:46.589Z,61.25
2017-07-03T08:32:46.592Z,60.97
2017-07-03T08:33:46.585Z,61.45
2017-07-03T08:34:46.588Z,61.38
2017-07-03T08:35:46.273Z,60.22
2017-07-03T08:36:46.590Z,60.31
2017-07-03T08:37:46.278Z,61.68
2017-07-03T08:38:46.276Z,62.23
2017-07-03T08:39:46.272Z,61.16
2017-07-03T08:40:46.590Z,60.28
2017-07-03T08:41:46.590Z,61.38
2017-07-03T08:42:46.586Z,61.19
2017-07-03T08:43:46.593Z,61.02
2017-07-03T08:44:46.591Z,60.47
2017-07-03T08:45:46.281Z,58.56
2017-07-03T08:46:46.273Z,58.82
2017-07-03T08:47:46.590Z,60.41
2017-07-03T08:48:46.595Z,60.22
2017-07-03T08:49:46.593Z,59.74
2017-07-03T08:50:46.282Z,60.12
2017-07-03T08:51:46.276Z,61.45
2017-07-03T08:52:46.590Z,61.88
2017-07-03T08:53:46.276Z,64.56
2017-07-03T08:54:46.585Z,64.92
2017-07-03T08:55:46.589Z,65.01
2017-07-03T08:56:46.588Z,65.95
2017-07-03T08:57:46.583Z,67.63
2017-07-03T08:58:46.271Z,69.72
2017-07-03T08:59:46.579Z,69.78
2017-07-03T09:00:46.575Z,70.62
2017-07-03T09:01:46.576Z,72.16
2017-07-03T09:02:46.256Z,72.55
2017-07-03T09:03:46.575Z,73.13
2017-07-03T09:04:46.562Z,72.68
2017-07-03T09:05:46.557Z,71.52
2017-07-03T09:06:46.559Z,73.03
2017-07-03T09:07:46.238Z,74.06
2017-07-03T09:08:46.548Z,74.21
2017-07-03T09:09:46.229Z,75.18
2017-07-03T09:10:46.544Z,75.18
2017-07-03T09:11:46.220Z,76.4
2017-07-03T09:12:46.216Z,76.5
2017-07-03T09:13:46.526Z,77.75
2017-07-03T09:14:46.521Z,78.13
2017-07-03T09:15:46.515Z,77.26
2017-07-03T09:16:46.199Z,76.3
2017-07-03T09:17:46.511Z,75.76
2017-07-03T09:18:46.196Z,73.25
2017-07-03T09:19:46.186Z,71.48
2017-07-03T09:20:46.501Z,70.46
2017-07-03T09:21:46.497Z,70.4
2017-07-03T09:22:46.529Z,68.3
2017-07-03T09:23:46.493Z,66.88
2017-07-03T09:24:46.178Z,65.56
2017-07-03T09:25:46.486Z,65.66
2017-07-03T09:26:46.485Z,64.2
2017-07-03T09:27:46.486Z,65.79
2017-07-03T09:28:46.484Z,64.53
2017-07-03T09:29:46.169Z,64.47
2017-07-03T09:30:46.169Z,64.01
2017-07-03T09:31:46.480Z,62.88
2017-07-03T09:32:46.477Z,61.74
2017-07-03T09:33:46.172Z,60.58
2017-07-03T09:34:46.480Z,60.58
2017-07-03T09:35:46.484Z,60.61
2017-07-03T09:36:46.480Z,60.51
2017-07-03T09:37:46.166Z,61.29
2017-07-03T09:38:46.482Z,62.55
2017-07-03T09:39:46.169Z,59.18
2017-07-03T09:40:46.484Z,59.34
2017-07-03T09:41:46.170Z,60.55
2017-07-03T09:42:46.176Z,59.87
2017-07-03T09:43:46.491Z,61.61
2017-07-03T09:44:46.490Z,62.95
2017-07-03T09:45:46.174Z,62.88
2017-07-03T09:46:46.178Z,65.01
2017-07-03T09:47:46.492Z,64.53
2017-07-03T09:48:46.181Z,64.04
2017-07-03T09:49:46.496Z,64.98
2017-07-03T09:50:46.588Z,64.5
2017-07-03T09:51:46.186Z,65.37
2017-07-03T09:52:46.186Z,65.3
2017-07-03T09:53:46.498Z,62.88
2017-07-03T09:54:46.507Z,62.79
2017-07-03T09:55:46.506Z,63.75
2017-07-03T09:56:46.505Z,64.4
2017-07-03T09:57:46.194Z,64.72
2017-07-03T09:58:46.508Z,64.24
2017-07-03T09:59:46.511Z,63.65
2017-07-03T10:00:46.517Z,63.69
2017-07-03T10:01:46.514Z,63.72
2017-07-03T10:02:46.202Z,61.61
2017-07-03T10:03:46.519Z,61.35
2017-07-03T10:04:46.520Z,61.16
2017-07-03T10:05:46.525Z,60.38
2017-07-03T10:06:46.528Z,59.03
2017-07-03T10:07:46.607Z,59.51
2017-07-03T10:08:46.531Z,59.8
2017-07-03T10:09:46.532Z,59.44
2017-07-03T10:10:46.226Z,57.89
2017-07-03T10:11:46.223Z,58.25
2017-07-03T10:12:46.233Z,58.18
2017-07-03T10:13:46.543Z,58.67
2017-07-03T10:14:46.544Z,59.51
2017-07-03T10:15:46.234Z,60.19
2017-07-03T10:16:46.549Z,61.32
2017-07-03T10:17:46.553Z,60.25
2017-07-03T10:18:46.279Z,59.94
2017-07-03T10:19:46.554Z,61.29
2017-07-03T10:20:46.561Z,58.97
2017-07-03T10:21:46.247Z,57.73
2017-07-03T10:22:46.251Z,58.41
2017-07-03T10:23:46.602Z,58.51
2017-07-03T10:24:46.570Z,58.8
2017-07-03T10:25:46.263Z,57.86
2017-07-03T10:26:46.576Z,59.12
2017-07-03T10:27:46.581Z,58.28
2017-07-03T10:28:46.274Z,57.43
2017-07-03T10:29:46.272Z,58.31
2017-07-03T10:30:46.278Z,55.71
2017-07-03T10:31:46.591Z,56.97
2017-07-03T10:32:46.281Z,55.74
2017-07-03T10:33:46.616Z,55.44
2017-07-03T10:34:46.287Z,54.54
2017-07-03T10:35:46.291Z,54.74
2017-07-03T10:36:46.289Z,55.13
2017-07-03T10:37:46.614Z,54.05
2017-07-03T10:38:46.616Z,54.22
2017-07-03T10:39:46.300Z,55.36
2017-07-03T10:40:46.623Z,56.72
2017-07-03T10:41:46.310Z,57.23
2017-07-03T10:42:46.624Z,55.88
2017-07-03T10:43:46.626Z,55.58
2017-07-03T10:44:46.633Z,54.54
2017-07-03T10:45:46.326Z,55.71
2017-07-03T10:46:46.326Z,54.35
2017-07-03T10:47:46.333Z,56
2017-07-03T10:48:46.645Z,55.58
2017-07-03T10:49:46.646Z,57.04
2017-07-03T10:50:46.339Z,55.9
2017-07-03T10:51:46.651Z,54.18
2017-07-03T10:52:46.655Z,54.76
2017-07-03T10:53:46.347Z,56.07
2017-07-03T10:54:46.353Z,57.72
2017-07-03T10:55:46.356Z,56.56
2017-07-03T10:56:46.671Z,58.21
2017-07-03T10:57:46.362Z,56.95
2017-07-03T10:58:46.365Z,56.77
2017-07-03T10:59:46.686Z,54.96
2017-07-03T11:00:46.682Z,53.72
2017-07-03T11:01:46.707Z,54.18
2017-07-03T11:02:46.379Z,55.66
2017-07-03T11:03:46.693Z,53.91
2017-07-03T11:04:46.386Z,54.6
2017-07-03T11:05:46.387Z,55.5
2017-07-03T11:06:46.704Z,53.65
2017-07-03T11:07:46.394Z,54.01
2017-07-03T11:08:46.715Z,55.64
2017-07-03T11:09:46.741Z,57.03
2017-07-03T11:10:46.718Z,54.57
2017-07-03T11:11:46.722Z,55.35
2017-07-03T11:12:46.723Z,53.4
2017-07-03T11:13:46.729Z,55.64
2017-07-03T11:14:46.423Z,54.08
2017-07-03T11:15:46.740Z,53.59
2017-07-03T11:16:46.427Z,55.54
2017-07-03T11:17:46.430Z,54.11
2017-07-03T11:18:46.436Z,53.89
2017-07-03T11:19:46.437Z,53.81
2017-07-03T11:20:46.441Z,55.25
2017-07-03T11:21:46.762Z,53.69
2017-07-03T11:22:46.460Z,53.2
2017-07-03T11:23:46.770Z,54.08
2017-07-03T11:24:46.459Z,54.44
2017-07-03T11:25:46.774Z,53.86
2017-07-03T11:26:46.465Z,55.71
2017-07-03T11:27:46.782Z,53.59
2017-07-03T11:28:46.840Z,52.94
2017-07-03T11:29:46.476Z,52.92
2017-07-03T11:30:46.842Z,52.33
2017-07-03T11:31:46.793Z,53.38
2017-07-03T11:32:46.799Z,56.2
2017-07-03T11:33:46.493Z,52.92
2017-07-03T11:34:46.808Z,53.11
2017-07-03T11:35:46.810Z,53.11
2017-07-03T11:36:46.811Z,52.79
2017-07-03T11:37:46.507Z,54.05
2017-07-03T11:38:46.822Z,54.42
2017-07-03T11:39:46.825Z,54.42
2017-07-03T11:40:46.824Z,54.54
2017-07-03T11:41:46.518Z,54.54
2017-07-03T11:42:46.521Z,51.82
2017-07-03T11:43:46.525Z,52.31
2017-07-03T11:44:46.528Z,52.31
2017-07-03T11:45:46.533Z,52.21
2017-07-03T11:46:46.535Z,52.72
2017-07-03T11:47:46.851Z,52.43
2017-07-03T11:48:46.857Z,55.35
2017-07-03T11:49:46.546Z,52.33
2017-07-03T11:50:46.553Z,53.04
2017-07-03T11:51:46.869Z,51.48
2017-07-03T11:52:46.876Z,51.97
2017-07-03T11:53:46.566Z,51.77
2017-07-03T11:54:46.881Z,51.99
2017-07-03T11:55:46.884Z,51.12
2017-07-03T11:56:46.574Z,51.31
2017-07-03T11:57:46.892Z,50.73
2017-07-03T11:58:46.892Z,51.39
2017-07-03T11:59:46.903Z,50.99
2017-07-03T12:00:46.588Z,50.21
2017-07-03T12:01:46.594Z,50.34
2017-07-03T12:02:46.596Z,52.19
2017-07-03T12:03:46.604Z,51.53
2017-07-03T12:04:46.608Z,48.02
2017-07-03T12:05:46.935Z,49.76
2017-07-03T12:06:46.616Z,50.04
2017-07-03T12:07:46.928Z,49.95
2017-07-03T12:08:46.932Z,49.76
2017-07-03T12:09:46.935Z,49.46
2017-07-03T12:10:46.632Z,49.76
2017-07-03T12:11:46.627Z,48.68
2017-07-03T12:12:46.953Z,50.16
2017-07-03T12:13:46.638Z,49.66
2017-07-03T12:14:46.953Z,49.88
2017-07-03T12:15:46.650Z,49.19
2017-07-03T12:16:46.651Z,48.22
2017-07-03T12:17:46.968Z,48.24
2017-07-03T12:18:46.968Z,49.46
2017-07-03T12:19:46.657Z,50.02
2017-07-03T12:20:46.975Z,49.56
2017-07-03T12:21:46.699Z,48.88
2017-07-03T12:22:46.664Z,47.42
2017-07-03T12:23:46.987Z,47.05
2017-07-03T12:24:46.676Z,48.32
2017-07-03T12:25:46.995Z,48.14
2017-07-03T12:26:47.001Z,46.49
2017-07-03T12:27:46.689Z,48.93
2017-07-03T12:28:47.011Z,45.83
2017-07-03T12:29:47.009Z,44.87
2017-07-03T12:30:47.018Z,44.19
2017-07-03T12:31:47.016Z,44.76
2017-07-03T12:32:47.026Z,44.37
2017-07-03T12:33:46.713Z,45.71
2017-07-03T12:34:47.030Z,46.86
2017-07-03T12:35:47.040Z,45.78
2017-07-03T12:36:47.044Z,45.86
2017-07-03T12:37:46.766Z,45.76
2017-07-03T12:38:46.733Z,46.05
2017-07-03T12:39:47.051Z,44.42
2017-07-03T12:40:46.744Z,42.76
2017-07-03T12:41:47.074Z,43.91
2017-07-03T12:42:47.145Z,45.06
2017-07-03T12:43:47.070Z,47.08
2017-07-03T12:44:46.761Z,47.25
2017-07-03T12:45:46.764Z,47.74
2017-07-03T12:46:46.763Z,49
2017-07-03T12:47:47.080Z,47.47
2017-07-03T12:48:46.769Z,47.25
2017-07-03T12:49:46.774Z,49
2017-07-03T12:50:46.776Z,48.51
2017-07-03T12:51:46.787Z,47.81
2017-07-03T12:52:47.142Z,50.02
2017-07-03T12:53:46.782Z,49.54
2017-07-03T12:54:47.099Z,51.06
2017-07-03T12:55:47.106Z,51.14